Aviation Digital Data Service (ADDS)

Output produced by METARs form (2144 UTC 01 December 2021)
found at http://www.aviationweather.gov/metar/data/
 
METAR text: EPKT 012130Z 21013KT 9999 SCT035 OVC040 07/02 Q0993
Conditions at: EPKT (KATOWICE/PYRZOWI, PL) observed 2130 UTC 01 December 2021
Temperature: 7.0°C (45°F)
Dewpoint: 2.0°C (36°F) [RH = 70%]
Pressure (altimeter): 29.32 inches Hg (993.0 mb)
Winds: from the SSW (210 degrees) at 15 MPH (13 knots; 6.7 m/s)
Visibility: 6 or more miles (10+ km)
Ceiling: 4000 feet AGL
Clouds: scattered clouds at 3500 feet AGL
overcast cloud deck at 4000 feet AGL
Weather: no significant weather observed at this time

METAR text: EPKT 012100Z 21012KT 9999 OVC036 07/03 Q0993
Conditions at: EPKT (KATOWICE/PYRZOWI, PL) observed 2100 UTC 01 December 2021
Temperature: 7.0°C (45°F)
Dewpoint: 3.0°C (37°F) [RH = 76%]
Pressure (altimeter): 29.32 inches Hg (993.0 mb)
Winds: from the SSW (210 degrees) at 14 MPH (12 knots; 6.2 m/s)
Visibility: 6 or more miles (10+ km)
Ceiling: 3600 feet AGL
Clouds: overcast cloud deck at 3600 feet AGL
Weather: no significant weather observed at this time

METAR text: EPKT 012030Z 22017KT 9999 SCT038 07/02 Q0993
Conditions at: EPKT (KATOWICE/PYRZOWI, PL) observed 2030 UTC 01 December 2021
Temperature: 7.0°C (45°F)
Dewpoint: 2.0°C (36°F) [RH = 70%]
Pressure (altimeter): 29.32 inches Hg (993.0 mb)
Winds: from the SW (220 degrees) at 20 MPH (17 knots; 8.7 m/s)
Visibility: 6 or more miles (10+ km)
Ceiling: at least 12,000 feet AGL
Clouds: scattered clouds at 3800 feet AGL
Weather: no significant weather observed at this time

METAR text: EPKT 012000Z 22016G26KT 9999 FEW041 07/02 Q0993
Conditions at: EPKT (KATOWICE/PYRZOWI, PL) observed 2000 UTC 01 December 2021
Temperature: 7.0°C (45°F)
Dewpoint: 2.0°C (36°F) [RH = 70%]
Pressure (altimeter): 29.32 inches Hg (993.0 mb)
Winds: from the SW (220 degrees) at 18 MPH (16 knots; 8.2 m/s)
gusting to 30 MPH (26 knots; 13.4 m/s)
Visibility: 6 or more miles (10+ km)
Ceiling: at least 12,000 feet AGL
Clouds: few clouds at 4100 feet AGL
Weather: no significant weather observed at this time

METAR text: EPKT 011930Z 23015KT 9999 BKN039 OVC044 07/03 Q0993
Conditions at: EPKT (KATOWICE/PYRZOWI, PL) observed 1930 UTC 01 December 2021
Temperature: 7.0°C (45°F)
Dewpoint: 3.0°C (37°F) [RH = 76%]
Pressure (altimeter): 29.32 inches Hg (993.0 mb)
Winds: from the SW (230 degrees) at 17 MPH (15 knots; 7.7 m/s)
Visibility: 6 or more miles (10+ km)
Ceiling: 3900 feet AGL
Clouds: broken clouds at 3900 feet AGL
overcast cloud deck at 4400 feet AGL
Weather: no significant weather observed at this time

METAR text: EPKT 011900Z 22012KT CAVOK 06/03 Q0994
Conditions at: EPKT (KATOWICE/PYRZOWI, PL) observed 1900 UTC 01 December 2021
Temperature: 6.0°C (43°F)
Dewpoint: 3.0°C (37°F) [RH = 81%]
Pressure (altimeter): 29.35 inches Hg (994.0 mb)
Winds: from the SW (220 degrees) at 14 MPH (12 knots; 6.2 m/s)
Visibility: 6 or more miles (10+ km)
Ceiling: ceiling and visibility are OK
Clouds: unknown
Weather: no significant weather observed at this time

METAR text: EPKT 011830Z 22015KT 9999 FEW032 06/03 Q0994
Conditions at: EPKT (KATOWICE/PYRZOWI, PL) observed 1830 UTC 01 December 2021
Temperature: 6.0°C (43°F)
Dewpoint: 3.0°C (37°F) [RH = 81%]
Pressure (altimeter): 29.35 inches Hg (994.0 mb)
Winds: from the SW (220 degrees) at 17 MPH (15 knots; 7.7 m/s)
Visibility: 6 or more miles (10+ km)
Ceiling: at least 12,000 feet AGL
Clouds: few clouds at 3200 feet AGL
Weather: no significant weather observed at this time

METAR text: EPKT 011800Z 21013KT 9999 -RA FEW017 BKN049 06/03 Q0994
Conditions at: EPKT (KATOWICE/PYRZOWI, PL) observed 1800 UTC 01 December 2021
Temperature: 6.0°C (43°F)
Dewpoint: 3.0°C (37°F) [RH = 81%]
Pressure (altimeter): 29.35 inches Hg (994.0 mb)
Winds: from the SSW (210 degrees) at 15 MPH (13 knots; 6.7 m/s)
Visibility: 6 or more miles (10+ km)
Ceiling: 4900 feet AGL
Clouds: few clouds at 1700 feet AGL
broken clouds at 4900 feet AGL
Weather: -RA  (light rain)

METAR text: EPKT 011730Z 21017KT 9999 -RA SCT011 06/03 Q0995
Conditions at: EPKT (KATOWICE/PYRZOWI, PL) observed 1730 UTC 01 December 2021
Temperature: 6.0°C (43°F)
Dewpoint: 3.0°C (37°F) [RH = 81%]
Pressure (altimeter): 29.38 inches Hg (995.0 mb)
Winds: from the SSW (210 degrees) at 20 MPH (17 knots; 8.7 m/s)
Visibility: 6 or more miles (10+ km)
Ceiling: at least 12,000 feet AGL
Clouds: scattered clouds at 1100 feet AGL
Weather: -RA  (light rain)

METAR text: EPKT 011700Z 21017KT 9999 -RA BKN014 BKN017 BKN021 05/03 Q0995
Conditions at: EPKT (KATOWICE/PYRZOWI, PL) observed 1700 UTC 01 December 2021
Temperature: 5.0°C (41°F)
Dewpoint: 3.0°C (37°F) [RH = 87%]
Pressure (altimeter): 29.38 inches Hg (995.0 mb)
Winds: from the SSW (210 degrees) at 20 MPH (17 knots; 8.7 m/s)
Visibility: 6 or more miles (10+ km)
Ceiling: 1400 feet AGL
Clouds: broken clouds at 1400 feet AGL
broken clouds at 1700 feet AGL
broken clouds at 2100 feet AGL
Weather: -RA  (light rain)

METAR text: EPKT 011630Z 22017KT 9999 SCT015 BKN017 BKN020 05/03 Q0995
Conditions at: EPKT (KATOWICE/PYRZOWI, PL) observed 1630 UTC 01 December 2021
Temperature: 5.0°C (41°F)
Dewpoint: 3.0°C (37°F) [RH = 87%]
Pressure (altimeter): 29.38 inches Hg (995.0 mb)
Winds: from the SW (220 degrees) at 20 MPH (17 knots; 8.7 m/s)
Visibility: 6 or more miles (10+ km)
Ceiling: 1700 feet AGL
Clouds: scattered clouds at 1500 feet AGL
broken clouds at 1700 feet AGL
broken clouds at 2000 feet AGL
Weather: no significant weather observed at this time

METAR text: EPKT 011600Z 22016KT 9999 -RA SCT012 BKN015 OVC018 05/03 Q0996
Conditions at: EPKT (KATOWICE/PYRZOWI, PL) observed 1600 UTC 01 December 2021
Temperature: 5.0°C (41°F)
Dewpoint: 3.0°C (37°F) [RH = 87%]
Pressure (altimeter): 29.41 inches Hg (996.0 mb)
Winds: from the SW (220 degrees) at 18 MPH (16 knots; 8.2 m/s)
Visibility: 6 or more miles (10+ km)
Ceiling: 1500 feet AGL
Clouds: scattered clouds at 1200 feet AGL
broken clouds at 1500 feet AGL
overcast cloud deck at 1800 feet AGL
Weather: -RA  (light rain)

METAR text: EPKT 011530Z 21016KT 9999 -RA FEW009 BKN011 05/03 Q0996
Conditions at: EPKT (KATOWICE/PYRZOWI, PL) observed 1530 UTC 01 December 2021
Temperature: 5.0°C (41°F)
Dewpoint: 3.0°C (37°F) [RH = 87%]
Pressure (altimeter): 29.41 inches Hg (996.0 mb)
Winds: from the SSW (210 degrees) at 18 MPH (16 knots; 8.2 m/s)
Visibility: 6 or more miles (10+ km)
Ceiling: 1100 feet AGL
Clouds: few clouds at 900 feet AGL
broken clouds at 1100 feet AGL
Weather: -RA  (light rain)

METAR text: EPKT 011500Z 20014KT 9999 -RA FEW007 BKN010 04/03 Q0996
Conditions at: EPKT (KATOWICE/PYRZOWI, PL) observed 1500 UTC 01 December 2021
Temperature: 4.0°C (39°F)
Dewpoint: 3.0°C (37°F) [RH = 93%]
Pressure (altimeter): 29.41 inches Hg (996.0 mb)
Winds: from the SSW (200 degrees) at 16 MPH (14 knots; 7.2 m/s)
Visibility: 6 or more miles (10+ km)
Ceiling: 1000 feet AGL
Clouds: few clouds at 700 feet AGL
broken clouds at 1000 feet AGL
Weather: -RA  (light rain)

METAR text: EPKT 011430Z 20012KT 9999 -RA SCT008 OVC010 04/03 Q0996
Conditions at: EPKT (KATOWICE/PYRZOWI, PL) observed 1430 UTC 01 December 2021
Temperature: 4.0°C (39°F)
Dewpoint: 3.0°C (37°F) [RH = 93%]
Pressure (altimeter): 29.41 inches Hg (996.0 mb)
Winds: from the SSW (200 degrees) at 14 MPH (12 knots; 6.2 m/s)
Visibility: 6 or more miles (10+ km)
Ceiling: 1000 feet AGL
Clouds: scattered clouds at 800 feet AGL
overcast cloud deck at 1000 feet AGL
Weather: -RA  (light rain)

METAR text: EPKT 011400Z 21014KT 9999 -RA FEW008 OVC010 04/03 Q0997
Conditions at: EPKT (KATOWICE/PYRZOWI, PL) observed 1400 UTC 01 December 2021
Temperature: 4.0°C (39°F)
Dewpoint: 3.0°C (37°F) [RH = 93%]
Pressure (altimeter): 29.44 inches Hg (997.0 mb)
Winds: from the SSW (210 degrees) at 16 MPH (14 knots; 7.2 m/s)
Visibility: 6 or more miles (10+ km)
Ceiling: 1000 feet AGL
Clouds: few clouds at 800 feet AGL
overcast cloud deck at 1000 feet AGL
Weather: -RA  (light rain)

METAR text: EPKT 011330Z 21014G25KT 9999 -RA FEW008 BKN009 OVC010 04/02 Q0998
Conditions at: EPKT (KATOWICE/PYRZOWI, PL) observed 1330 UTC 01 December 2021
Temperature: 4.0°C (39°F)
Dewpoint: 2.0°C (36°F) [RH = 87%]
Pressure (altimeter): 29.47 inches Hg (998.0 mb)
Winds: from the SSW (210 degrees) at 16 MPH (14 knots; 7.2 m/s)
gusting to 29 MPH (25 knots; 12.9 m/s)
Visibility: 6 or more miles (10+ km)
Ceiling: 900 feet AGL
Clouds: few clouds at 800 feet AGL
broken clouds at 900 feet AGL
overcast cloud deck at 1000 feet AGL
Weather: -RA  (light rain)

METAR text: EPKT 011300Z 21015KT 9999 -RA SCT007 OVC008 04/02 Q0998
Conditions at: EPKT (KATOWICE/PYRZOWI, PL) observed 1300 UTC 01 December 2021
Temperature: 4.0°C (39°F)
Dewpoint: 2.0°C (36°F) [RH = 87%]
Pressure (altimeter): 29.47 inches Hg (998.0 mb)
Winds: from the SSW (210 degrees) at 17 MPH (15 knots; 7.7 m/s)
Visibility: 6 or more miles (10+ km)
Ceiling: 800 feet AGL
Clouds: scattered clouds at 700 feet AGL
overcast cloud deck at 800 feet AGL
Weather: -RA  (light rain)

METAR text: EPKT 011230Z 20012KT 9000 -RA OVC008 03/02 Q0999
Conditions at: EPKT (KATOWICE/PYRZOWI, PL) observed 1230 UTC 01 December 2021
Temperature: 3.0°C (37°F)
Dewpoint: 2.0°C (36°F) [RH = 93%]
Pressure (altimeter): 29.50 inches Hg (999.0 mb)
Winds: from the SSW (200 degrees) at 14 MPH (12 knots; 6.2 m/s)
Visibility: 6 miles ( 9 km)
Ceiling: 800 feet AGL
Clouds: overcast cloud deck at 800 feet AGL
Weather: -RA  (light rain)

METAR text: EPKT 011200Z 21014KT 9999 -RA BKN009 OVC010 03/02 Q0999
Conditions at: EPKT (KATOWICE/PYRZOWI, PL) observed 1200 UTC 01 December 2021
Temperature: 3.0°C (37°F)
Dewpoint: 2.0°C (36°F) [RH = 93%]
Pressure (altimeter): 29.50 inches Hg (999.0 mb)
Winds: from the SSW (210 degrees) at 16 MPH (14 knots; 7.2 m/s)
Visibility: 6 or more miles (10+ km)
Ceiling: 900 feet AGL
Clouds: broken clouds at 900 feet AGL
overcast cloud deck at 1000 feet AGL
Weather: -RA  (light rain)

METAR text: EPKT 011130Z 19011KT 9999 -RA OVC010 03/02 Q1000
Conditions at: EPKT (KATOWICE/PYRZOWI, PL) observed 1130 UTC 01 December 2021
Temperature: 3.0°C (37°F)
Dewpoint: 2.0°C (36°F) [RH = 93%]
Pressure (altimeter): 29.53 inches Hg (1000.0 mb)
Winds: from the S (190 degrees) at 13 MPH (11 knots; 5.7 m/s)
Visibility: 6 or more miles (10+ km)
Ceiling: 1000 feet AGL
Clouds: overcast cloud deck at 1000 feet AGL
Weather: -RA  (light rain)

METAR text: EPKT 011100Z 20012KT 9999 -RA FEW008 BKN011 OVC014 03/01 Q1000
Conditions at: EPKT (KATOWICE/PYRZOWI, PL) observed 1100 UTC 01 December 2021
Temperature: 3.0°C (37°F)
Dewpoint: 1.0°C (34°F) [RH = 87%]
Pressure (altimeter): 29.53 inches Hg (1000.0 mb)
Winds: from the SSW (200 degrees) at 14 MPH (12 knots; 6.2 m/s)
Visibility: 6 or more miles (10+ km)
Ceiling: 1100 feet AGL
Clouds: few clouds at 800 feet AGL
broken clouds at 1100 feet AGL
overcast cloud deck at 1400 feet AGL
Weather: -RA  (light rain)

METAR text: EPKT 011030Z 20012KT 9999 -RA FEW015 SCT018 BKN032 03/00 Q1001
Conditions at: EPKT (KATOWICE/PYRZOWI, PL) observed 1030 UTC 01 December 2021
Temperature: 3.0°C (37°F)
Dewpoint: 0.0°C (32°F) [RH = 81%]
Pressure (altimeter): 29.56 inches Hg (1001.0 mb)
Winds: from the SSW (200 degrees) at 14 MPH (12 knots; 6.2 m/s)
Visibility: 6 or more miles (10+ km)
Ceiling: 3200 feet AGL
Clouds: few clouds at 1500 feet AGL
scattered clouds at 1800 feet AGL
broken clouds at 3200 feet AGL
Weather: -RA  (light rain)

METAR text: EPKT 011000Z 19009KT CAVOK 03/M01 Q1001
Conditions at: EPKT (KATOWICE/PYRZOWI, PL) observed 1000 UTC 01 December 2021
Temperature: 3.0°C (37°F)
Dewpoint: -1.0°C (30°F) [RH = 75%]
Pressure (altimeter): 29.56 inches Hg (1001.0 mb)
Winds: from the S (190 degrees) at 10 MPH (9 knots; 4.6 m/s)
Visibility: 6 or more miles (10+ km)
Ceiling: ceiling and visibility are OK
Clouds: unknown
Weather: no significant weather observed at this time

METAR text: EPKT 010930Z 19010KT 9999 FEW043 02/M01 Q1002
Conditions at: EPKT (KATOWICE/PYRZOWI, PL) observed 0930 UTC 01 December 2021
Temperature: 2.0°C (36°F)
Dewpoint: -1.0°C (30°F) [RH = 80%]
Pressure (altimeter): 29.59 inches Hg (1002.0 mb)
Winds: from the S (190 degrees) at 12 MPH (10 knots; 5.1 m/s)
Visibility: 6 or more miles (10+ km)
Ceiling: at least 12,000 feet AGL
Clouds: few clouds at 4300 feet AGL
Weather: no significant weather observed at this time

METAR text: EPKT 010900Z 19007KT CAVOK 02/M01 Q1002
Conditions at: EPKT (KATOWICE/PYRZOWI, PL) observed 0900 UTC 01 December 2021
Temperature: 2.0°C (36°F)
Dewpoint: -1.0°C (30°F) [RH = 80%]
Pressure (altimeter): 29.59 inches Hg (1002.0 mb)
Winds: from the S (190 degrees) at 8 MPH (7 knots; 3.6 m/s)
Visibility: 6 or more miles (10+ km)
Ceiling: ceiling and visibility are OK
Clouds: unknown
Weather: no significant weather observed at this time

METAR text: EPKT 010830Z 20007KT CAVOK 01/M00 Q1002
Conditions at: EPKT (KATOWICE/PYRZOWI, PL) observed 0830 UTC 01 December 2021
Temperature: 1.0°C (34°F)
Dewpoint: 0.0°C (32°F) [RH = 93%]
Pressure (altimeter): 29.59 inches Hg (1002.0 mb)
Winds: from the SSW (200 degrees) at 8 MPH (7 knots; 3.6 m/s)
Visibility: 6 or more miles (10+ km)
Ceiling: ceiling and visibility are OK
Clouds: unknown
Weather: no significant weather observed at this time

METAR text: EPKT 010800Z 20006KT 9999 SCT029 01/M01 Q1003
Conditions at: EPKT (KATOWICE/PYRZOWI, PL) observed 0800 UTC 01 December 2021
Temperature: 1.0°C (34°F)
Dewpoint: -1.0°C (30°F) [RH = 86%]
Pressure (altimeter): 29.62 inches Hg (1003.0 mb)
Winds: from the SSW (200 degrees) at 7 MPH (6 knots; 3.1 m/s)
Visibility: 6 or more miles (10+ km)
Ceiling: at least 12,000 feet AGL
Clouds: scattered clouds at 2900 feet AGL
Weather: no significant weather observed at this time

METAR text: EPKT 010730Z 23007KT 9999 OVC028 01/M01 Q1003
Conditions at: EPKT (KATOWICE/PYRZOWI, PL) observed 0730 UTC 01 December 2021
Temperature: 1.0°C (34°F)
Dewpoint: -1.0°C (30°F) [RH = 86%]
Pressure (altimeter): 29.62 inches Hg (1003.0 mb)
Winds: from the SW (230 degrees) at 8 MPH (7 knots; 3.6 m/s)
Visibility: 6 or more miles (10+ km)
Ceiling: 2800 feet AGL
Clouds: overcast cloud deck at 2800 feet AGL
Weather: no significant weather observed at this time

METAR text: EPKT 010700Z 23006KT 9999 FEW022 BKN031 01/M01 Q1003
Conditions at: EPKT (KATOWICE/PYRZOWI, PL) observed 0700 UTC 01 December 2021
Temperature: 1.0°C (34°F)
Dewpoint: -1.0°C (30°F) [RH = 86%]
Pressure (altimeter): 29.62 inches Hg (1003.0 mb)
Winds: from the SW (230 degrees) at 7 MPH (6 knots; 3.1 m/s)
Visibility: 6 or more miles (10+ km)
Ceiling: 3100 feet AGL
Clouds: few clouds at 2200 feet AGL
broken clouds at 3100 feet AGL
Weather: no significant weather observed at this time

METAR text: EPKT 010630Z 24008KT 9999 BKN036 01/M01 Q1004
Conditions at: EPKT (KATOWICE/PYRZOWI, PL) observed 0630 UTC 01 December 2021
Temperature: 1.0°C (34°F)
Dewpoint: -1.0°C (30°F) [RH = 86%]
Pressure (altimeter): 29.65 inches Hg (1004.0 mb)
Winds: from the WSW (240 degrees) at 9 MPH (8 knots; 4.1 m/s)
Visibility: 6 or more miles (10+ km)
Ceiling: 3600 feet AGL
Clouds: broken clouds at 3600 feet AGL
Weather: no significant weather observed at this time

METAR text: EPKT 010600Z 24007KT 9999 FEW010 BKN016 01/M00 Q1004
Conditions at: EPKT (KATOWICE/PYRZOWI, PL) observed 0600 UTC 01 December 2021
Temperature: 1.0°C (34°F)
Dewpoint: 0.0°C (32°F) [RH = 93%]
Pressure (altimeter): 29.65 inches Hg (1004.0 mb)
Winds: from the WSW (240 degrees) at 8 MPH (7 knots; 3.6 m/s)
Visibility: 6 or more miles (10+ km)
Ceiling: 1600 feet AGL
Clouds: few clouds at 1000 feet AGL
broken clouds at 1600 feet AGL
Weather: no significant weather observed at this time

METAR text: EPKT 010530Z 26009KT 9999 FEW007 BKN009 01/M00 Q1003
Conditions at: EPKT (KATOWICE/PYRZOWI, PL) observed 0530 UTC 01 December 2021
Temperature: 1.0°C (34°F)
Dewpoint: 0.0°C (32°F) [RH = 93%]
Pressure (altimeter): 29.62 inches Hg (1003.0 mb)
Winds: from the W (260 degrees) at 10 MPH (9 knots; 4.6 m/s)
Visibility: 6 or more miles (10+ km)
Ceiling: 900 feet AGL
Clouds: few clouds at 700 feet AGL
broken clouds at 900 feet AGL
Weather: no significant weather observed at this time

METAR text: EPKT 010500Z 28012KT 9999 -SN FEW007 BKN009 01/M00 Q1003
Conditions at: EPKT (KATOWICE/PYRZOWI, PL) observed 0500 UTC 01 December 2021
Temperature: 1.0°C (34°F)
Dewpoint: 0.0°C (32°F) [RH = 93%]
Pressure (altimeter): 29.62 inches Hg (1003.0 mb)
Winds: from the W (280 degrees) at 14 MPH (12 knots; 6.2 m/s)
Visibility: 6 or more miles (10+ km)
Ceiling: 900 feet AGL
Clouds: few clouds at 700 feet AGL
broken clouds at 900 feet AGL
Weather: -SN  (light snow)

METAR text: EPKT 010430Z 27012KT 9999 -SN FEW003 BKN006 OVC008 01/M00 Q1003 RESNRA
Conditions at: EPKT (KATOWICE/PYRZOWI, PL) observed 0430 UTC 01 December 2021
Temperature: 1.0°C (34°F)
Dewpoint: 0.0°C (32°F) [RH = 93%]
Pressure (altimeter): 29.62 inches Hg (1003.0 mb)
Winds: from the W (270 degrees) at 14 MPH (12 knots; 6.2 m/s)
Visibility: 6 or more miles (10+ km)
Ceiling: 600 feet AGL
Clouds: few clouds at 300 feet AGL
broken clouds at 600 feet AGL
overcast cloud deck at 800 feet AGL
Weather: -SN  (light snow)

METAR text: EPKT 010400Z 27013KT 5000 SNRA SCT003 OVC006 01/M00 Q1003
Conditions at: EPKT (KATOWICE/PYRZOWI, PL) observed 0400 UTC 01 December 2021
Temperature: 1.0°C (34°F)
Dewpoint: 0.0°C (32°F) [RH = 93%]
Pressure (altimeter): 29.62 inches Hg (1003.0 mb)
Winds: from the W (270 degrees) at 15 MPH (13 knots; 6.7 m/s)
Visibility: 3 miles ( 5 km)
Ceiling: 600 feet AGL
Clouds: scattered clouds at 300 feet AGL
overcast cloud deck at 600 feet AGL
Weather: SN RA  (moderate snow, moderate rain)

METAR text: EPKT 010330Z 27012KT 9999 -SNRA FEW005 BKN006 01/00 Q1002
Conditions at: EPKT (KATOWICE/PYRZOWI, PL) observed 0330 UTC 01 December 2021
Temperature: 1.0°C (34°F)
Dewpoint: 0.0°C (32°F) [RH = 93%]
Pressure (altimeter): 29.59 inches Hg (1002.0 mb)
Winds: from the W (270 degrees) at 14 MPH (12 knots; 6.2 m/s)
Visibility: 6 or more miles (10+ km)
Ceiling: 600 feet AGL
Clouds: few clouds at 500 feet AGL
broken clouds at 600 feet AGL
Weather: -SN -RA  (light snow, light rain)

METAR text: EPKT 010300Z 26013KT 9000 -SN FEW003 BKN005 01/M00 Q1002
Conditions at: EPKT (KATOWICE/PYRZOWI, PL) observed 0300 UTC 01 December 2021
Temperature: 1.0°C (34°F)
Dewpoint: 0.0°C (32°F) [RH = 93%]
Pressure (altimeter): 29.59 inches Hg (1002.0 mb)
Winds: from the W (260 degrees) at 15 MPH (13 knots; 6.7 m/s)
Visibility: 6 miles ( 9 km)
Ceiling: 500 feet AGL
Clouds: few clouds at 300 feet AGL
broken clouds at 500 feet AGL
Weather: -SN  (light snow)

METAR text: EPKT 010230Z 27012KT 9999 -SN FEW006 SCT012 BKN016 01/M00 Q1001
Conditions at: EPKT (KATOWICE/PYRZOWI, PL) observed 0230 UTC 01 December 2021
Temperature: 1.0°C (34°F)
Dewpoint: 0.0°C (32°F) [RH = 93%]
Pressure (altimeter): 29.56 inches Hg (1001.0 mb)
Winds: from the W (270 degrees) at 14 MPH (12 knots; 6.2 m/s)
Visibility: 6 or more miles (10+ km)
Ceiling: 1600 feet AGL
Clouds: few clouds at 600 feet AGL
scattered clouds at 1200 feet AGL
broken clouds at 1600 feet AGL
Weather: -SN  (light snow)

METAR text: EPKT 010200Z 28013KT 5000 -SN FEW002 SCT014 BKN030 01/M00 Q1001 RESN
Conditions at: EPKT (KATOWICE/PYRZOWI, PL) observed 0200 UTC 01 December 2021
Temperature: 1.0°C (34°F)
Dewpoint: 0.0°C (32°F) [RH = 93%]
Pressure (altimeter): 29.56 inches Hg (1001.0 mb)
Winds: from the W (280 degrees) at 15 MPH (13 knots; 6.7 m/s)
Visibility: 3 miles ( 5 km)
Ceiling: 3000 feet AGL
Clouds: few clouds at 200 feet AGL
scattered clouds at 1400 feet AGL
broken clouds at 3000 feet AGL
Weather: -SN  (light snow)

METAR text: EPKT 010130Z 28014KT 9999 -SNRA FEW009 SCT028 OVC034 02/M00 Q1000
Conditions at: EPKT (KATOWICE/PYRZOWI, PL) observed 0130 UTC 01 December 2021
Temperature: 2.0°C (36°F)
Dewpoint: 0.0°C (32°F) [RH = 87%]
Pressure (altimeter): 29.53 inches Hg (1000.0 mb)
Winds: from the W (280 degrees) at 16 MPH (14 knots; 7.2 m/s)
Visibility: 6 or more miles (10+ km)
Ceiling: 3400 feet AGL
Clouds: few clouds at 900 feet AGL
scattered clouds at 2800 feet AGL
overcast cloud deck at 3400 feet AGL
Weather: -SN -RA  (light snow, light rain)

METAR text: EPKT 010100Z 28014KT 9999 -SNRA FEW003 SCT011 BKN017 01/00 Q1000
Conditions at: EPKT (KATOWICE/PYRZOWI, PL) observed 0100 UTC 01 December 2021
Temperature: 1.0°C (34°F)
Dewpoint: 0.0°C (32°F) [RH = 93%]
Pressure (altimeter): 29.53 inches Hg (1000.0 mb)
Winds: from the W (280 degrees) at 16 MPH (14 knots; 7.2 m/s)
Visibility: 6 or more miles (10+ km)
Ceiling: 1700 feet AGL
Clouds: few clouds at 300 feet AGL
scattered clouds at 1100 feet AGL
broken clouds at 1700 feet AGL
Weather: -SN -RA  (light snow, light rain)

METAR text: EPKT 010030Z 27015KT 9999 -SN BKN013 OVC019 02/M00 Q0999
Conditions at: EPKT (KATOWICE/PYRZOWI, PL) observed 0030 UTC 01 December 2021
Temperature: 2.0°C (36°F)
Dewpoint: 0.0°C (32°F) [RH = 87%]
Pressure (altimeter): 29.50 inches Hg (999.0 mb)
Winds: from the W (270 degrees) at 17 MPH (15 knots; 7.7 m/s)
Visibility: 6 or more miles (10+ km)
Ceiling: 1300 feet AGL
Clouds: broken clouds at 1300 feet AGL
overcast cloud deck at 1900 feet AGL
Weather: -SN  (light snow)

METAR text: EPKT 010000Z 27017KT 9999 -SN SCT014 BKN017 BKN023 02/M00 Q0998
Conditions at: EPKT (KATOWICE/PYRZOWI, PL) observed 0000 UTC 01 December 2021
Temperature: 2.0°C (36°F)
Dewpoint: 0.0°C (32°F) [RH = 87%]
Pressure (altimeter): 29.47 inches Hg (998.0 mb)
Winds: from the W (270 degrees) at 20 MPH (17 knots; 8.7 m/s)
Visibility: 6 or more miles (10+ km)
Ceiling: 1700 feet AGL
Clouds: scattered clouds at 1400 feet AGL
broken clouds at 1700 feet AGL
broken clouds at 2300 feet AGL
Weather: -SN  (light snow)

METAR text: EPKT 302330Z 26014KT 9999 FEW014 BKN017 OVC021 02/M00 Q0998
Conditions at: EPKT (KATOWICE/PYRZOWI, PL) observed 2330 UTC 30 November 2021
Temperature: 2.0°C (36°F)
Dewpoint: 0.0°C (32°F) [RH = 87%]
Pressure (altimeter): 29.47 inches Hg (998.0 mb)
Winds: from the W (260 degrees) at 16 MPH (14 knots; 7.2 m/s)
Visibility: 6 or more miles (10+ km)
Ceiling: 1700 feet AGL
Clouds: few clouds at 1400 feet AGL
broken clouds at 1700 feet AGL
overcast cloud deck at 2100 feet AGL
Weather: no significant weather observed at this time

METAR text: EPKT 302300Z 27016KT 9999 FEW018 BKN021 BKN025 02/M00 Q0997
Conditions at: EPKT (KATOWICE/PYRZOWI, PL) observed 2300 UTC 30 November 2021
Temperature: 2.0°C (36°F)
Dewpoint: 0.0°C (32°F) [RH = 87%]
Pressure (altimeter): 29.44 inches Hg (997.0 mb)
Winds: from the W (270 degrees) at 18 MPH (16 knots; 8.2 m/s)
Visibility: 6 or more miles (10+ km)
Ceiling: 2100 feet AGL
Clouds: few clouds at 1800 feet AGL
broken clouds at 2100 feet AGL
broken clouds at 2500 feet AGL
Weather: no significant weather observed at this time

METAR text: EPKT 302230Z 26015KT 9999 SCT017 OVC019 02/M00 Q0997
Conditions at: EPKT (KATOWICE/PYRZOWI, PL) observed 2230 UTC 30 November 2021
Temperature: 2.0°C (36°F)
Dewpoint: 0.0°C (32°F) [RH = 87%]
Pressure (altimeter): 29.44 inches Hg (997.0 mb)
Winds: from the W (260 degrees) at 17 MPH (15 knots; 7.7 m/s)
Visibility: 6 or more miles (10+ km)
Ceiling: 1900 feet AGL
Clouds: scattered clouds at 1700 feet AGL
overcast cloud deck at 1900 feet AGL
Weather: no significant weather observed at this time

METAR text: EPKT 302200Z 26021KT 9999 SCT018 OVC021 02/M00 Q0996
Conditions at: EPKT (KATOWICE/PYRZOWI, PL) observed 2200 UTC 30 November 2021
Temperature: 2.0°C (36°F)
Dewpoint: 0.0°C (32°F) [RH = 87%]
Pressure (altimeter): 29.41 inches Hg (996.0 mb)
Winds: from the W (260 degrees) at 24 MPH (21 knots; 10.8 m/s)
Visibility: 6 or more miles (10+ km)
Ceiling: 2100 feet AGL
Clouds: scattered clouds at 1800 feet AGL
overcast cloud deck at 2100 feet AGL
Weather: no significant weather observed at this time

METAR text: EPKT 302130Z 25020KT 9999 SCT019 OVC021 02/M00 Q0995
Conditions at: EPKT (KATOWICE/PYRZOWI, PL) observed 2130 UTC 30 November 2021
Temperature: 2.0°C (36°F)
Dewpoint: 0.0°C (32°F) [RH = 87%]
Pressure (altimeter): 29.38 inches Hg (995.0 mb)
Winds: from the WSW (250 degrees) at 23 MPH (20 knots; 10.3 m/s)
Visibility: 6 or more miles (10+ km)
Ceiling: 2100 feet AGL
Clouds: scattered clouds at 1900 feet AGL
overcast cloud deck at 2100 feet AGL
Weather: no significant weather observed at this time

METAR text: EPKT 302100Z 26018KT 9999 FEW005 SCT017 BKN020 02/00 Q0995
Conditions at: EPKT (KATOWICE/PYRZOWI, PL) observed 2100 UTC 30 November 2021
Temperature: 2.0°C (36°F)
Dewpoint: 0.0°C (32°F) [RH = 87%]
Pressure (altimeter): 29.38 inches Hg (995.0 mb)
Winds: from the W (260 degrees) at 21 MPH (18 knots; 9.3 m/s)
Visibility: 6 or more miles (10+ km)
Ceiling: 2000 feet AGL
Clouds: few clouds at 500 feet AGL
scattered clouds at 1700 feet AGL
broken clouds at 2000 feet AGL
Weather: no significant weather observed at this time

METAR text: EPKT 302030Z 26017KT 8000 -SN FEW003 SCT006 BKN013 01/00 Q0995 RESN
Conditions at: EPKT (KATOWICE/PYRZOWI, PL) observed 2030 UTC 30 November 2021
Temperature: 1.0°C (34°F)
Dewpoint: 0.0°C (32°F) [RH = 93%]
Pressure (altimeter): 29.38 inches Hg (995.0 mb)
Winds: from the W (260 degrees) at 20 MPH (17 knots; 8.7 m/s)
Visibility: 5 miles ( 8 km)
Ceiling: 1300 feet AGL
Clouds: few clouds at 300 feet AGL
scattered clouds at 600 feet AGL
broken clouds at 1300 feet AGL
Weather: -SN  (light snow)

METAR text: EPKT 302000Z 25019KT 9999 -SN FEW012 BKN020 OVC024 01/00 Q0995
Conditions at: EPKT (KATOWICE/PYRZOWI, PL) observed 2000 UTC 30 November 2021
Temperature: 1.0°C (34°F)
Dewpoint: 0.0°C (32°F) [RH = 93%]
Pressure (altimeter): 29.38 inches Hg (995.0 mb)
Winds: from the WSW (250 degrees) at 22 MPH (19 knots; 9.8 m/s)
Visibility: 6 or more miles (10+ km)
Ceiling: 2000 feet AGL
Clouds: few clouds at 1200 feet AGL
broken clouds at 2000 feet AGL
overcast cloud deck at 2400 feet AGL
Weather: -SN  (light snow)

METAR text: EPKT 301930Z 25017KT 9999 -SN FEW006 SCT010 OVC023 01/00 Q0995
Conditions at: EPKT (KATOWICE/PYRZOWI, PL) observed 1930 UTC 30 November 2021
Temperature: 1.0°C (34°F)
Dewpoint: 0.0°C (32°F) [RH = 93%]
Pressure (altimeter): 29.38 inches Hg (995.0 mb)
Winds: from the WSW (250 degrees) at 20 MPH (17 knots; 8.7 m/s)
Visibility: 6 or more miles (10+ km)
Ceiling: 2300 feet AGL
Clouds: few clouds at 600 feet AGL
scattered clouds at 1000 feet AGL
overcast cloud deck at 2300 feet AGL
Weather: -SN  (light snow)

METAR text: EPKT 301900Z 24017KT 9999 -SN FEW003 BKN005 OVC007 01/00 Q0994 RESN
Conditions at: EPKT (KATOWICE/PYRZOWI, PL) observed 1900 UTC 30 November 2021
Temperature: 1.0°C (34°F)
Dewpoint: 0.0°C (32°F) [RH = 93%]
Pressure (altimeter): 29.35 inches Hg (994.0 mb)
Winds: from the WSW (240 degrees) at 20 MPH (17 knots; 8.7 m/s)
Visibility: 6 or more miles (10+ km)
Ceiling: 500 feet AGL
Clouds: few clouds at 300 feet AGL
broken clouds at 500 feet AGL
overcast cloud deck at 700 feet AGL
Weather: -SN  (light snow)

METAR text: EPKT 301830Z 24017KT 2100 +SN SCT002 BKN004 BKN007 00/M00 Q0994
Conditions at: EPKT (KATOWICE/PYRZOWI, PL) observed 1830 UTC 30 November 2021
Temperature: 0.0°C (32°F)
Dewpoint: 0.0°C (32°F) [RH = 100%]
Pressure (altimeter): 29.35 inches Hg (994.0 mb)
Winds: from the WSW (240 degrees) at 20 MPH (17 knots; 8.7 m/s)
Visibility: 1.30 miles (2.09 km)
Ceiling: 400 feet AGL
Clouds: scattered clouds at 200 feet AGL
broken clouds at 400 feet AGL
broken clouds at 700 feet AGL
Weather: +SN  (heavy snow)

METAR text: EPKT 301800Z 23016KT 6000 SN BKN005 OVC007 00/M00 Q0994 RESN
Conditions at: EPKT (KATOWICE/PYRZOWI, PL) observed 1800 UTC 30 November 2021
Temperature: 0.0°C (32°F)
Dewpoint: 0.0°C (32°F) [RH = 100%]
Pressure (altimeter): 29.35 inches Hg (994.0 mb)
Winds: from the SW (230 degrees) at 18 MPH (16 knots; 8.2 m/s)
Visibility: 4 miles ( 6 km)
Ceiling: 500 feet AGL
Clouds: broken clouds at 500 feet AGL
overcast cloud deck at 700 feet AGL
Weather: SN  (moderate snow)

METAR text: EPKT 301730Z 23016KT 2500 +SN BR FEW002 BKN006 BKN008 00/M00 Q0994
Conditions at: EPKT (KATOWICE/PYRZOWI, PL) observed 1730 UTC 30 November 2021
Temperature: 0.0°C (32°F)
Dewpoint: 0.0°C (32°F) [RH = 100%]
Pressure (altimeter): 29.35 inches Hg (994.0 mb)
Winds: from the SW (230 degrees) at 18 MPH (16 knots; 8.2 m/s)
Visibility: 1.55 miles (2.49 km)
Ceiling: 600 feet AGL
Clouds: few clouds at 200 feet AGL
broken clouds at 600 feet AGL
broken clouds at 800 feet AGL
Weather: +SN BR  (heavy snow, mist)

METAR text: EPKT 301700Z 23016KT 2500 +SN BR SCT002 BKN005 OVC006 00/M00 Q0994
Conditions at: EPKT (KATOWICE/PYRZOWI, PL) observed 1700 UTC 30 November 2021
Temperature: 0.0°C (32°F)
Dewpoint: 0.0°C (32°F) [RH = 100%]
Pressure (altimeter): 29.35 inches Hg (994.0 mb)
Winds: from the SW (230 degrees) at 18 MPH (16 knots; 8.2 m/s)
Visibility: 1.55 miles (2.49 km)
Ceiling: 500 feet AGL
Clouds: scattered clouds at 200 feet AGL
broken clouds at 500 feet AGL
overcast cloud deck at 600 feet AGL
Weather: +SN BR  (heavy snow, mist)

METAR text: EPKT 301630Z 23015G25KT 7000 -SN FEW003 SCT004 BKN006 00/M00 Q0994 RESN
Conditions at: EPKT (KATOWICE/PYRZOWI, PL) observed 1630 UTC 30 November 2021
Temperature: 0.0°C (32°F)
Dewpoint: 0.0°C (32°F) [RH = 100%]
Pressure (altimeter): 29.35 inches Hg (994.0 mb)
Winds: from the SW (230 degrees) at 17 MPH (15 knots; 7.7 m/s)
gusting to 29 MPH (25 knots; 12.9 m/s)
Visibility: 4 miles ( 7 km)
Ceiling: 600 feet AGL
Clouds: few clouds at 300 feet AGL
scattered clouds at 400 feet AGL
broken clouds at 600 feet AGL
Weather: -SN  (light snow)

METAR text: EPKT 301600Z 23018KT 5000 -SN BR SCT003 OVC005 00/M00 Q0994 RESN
Conditions at: EPKT (KATOWICE/PYRZOWI, PL) observed 1600 UTC 30 November 2021
Temperature: 0.0°C (32°F)
Dewpoint: 0.0°C (32°F) [RH = 100%]
Pressure (altimeter): 29.35 inches Hg (994.0 mb)
Winds: from the SW (230 degrees) at 21 MPH (18 knots; 9.3 m/s)
Visibility: 3 miles ( 5 km)
Ceiling: 500 feet AGL
Clouds: scattered clouds at 300 feet AGL
overcast cloud deck at 500 feet AGL
Weather: -SN BR  (light snow, mist)

METAR text: EPKT 301530Z 23016G27KT 1700 +SN BR SCT002 BKN005 OVC009 00/M00 Q0994
Conditions at: EPKT (KATOWICE/PYRZOWI, PL) observed 1530 UTC 30 November 2021
Temperature: 0.0°C (32°F)
Dewpoint: 0.0°C (32°F) [RH = 100%]
Pressure (altimeter): 29.35 inches Hg (994.0 mb)
Winds: from the SW (230 degrees) at 18 MPH (16 knots; 8.2 m/s)
gusting to 31 MPH (27 knots; 13.9 m/s)
Visibility: 1.06 miles (1.71 km)
Ceiling: 500 feet AGL
Clouds: scattered clouds at 200 feet AGL
broken clouds at 500 feet AGL
overcast cloud deck at 900 feet AGL
Weather: +SN BR  (heavy snow, mist)

METAR text: EPKT 301500Z 22019KT 3100 SN BR SCT002 BKN007 OVC012 00/M01 Q0994 RESN
Conditions at: EPKT (KATOWICE/PYRZOWI, PL) observed 1500 UTC 30 November 2021
Temperature: 0.0°C (32°F)
Dewpoint: -1.0°C (30°F) [RH = 93%]
Pressure (altimeter): 29.35 inches Hg (994.0 mb)
Winds: from the SW (220 degrees) at 22 MPH (19 knots; 9.8 m/s)
Visibility: 1.93 miles (3.11 km)
Ceiling: 700 feet AGL
Clouds: scattered clouds at 200 feet AGL
broken clouds at 700 feet AGL
overcast cloud deck at 1200 feet AGL
Weather: SN BR  (moderate snow, mist)

METAR text: EPKT 301430Z 22018KT 7000 -SN SCT005 OVC007 00/M01 Q0994 RESN
Conditions at: EPKT (KATOWICE/PYRZOWI, PL) observed 1430 UTC 30 November 2021
Temperature: 0.0°C (32°F)
Dewpoint: -1.0°C (30°F) [RH = 93%]
Pressure (altimeter): 29.35 inches Hg (994.0 mb)
Winds: from the SW (220 degrees) at 21 MPH (18 knots; 9.3 m/s)
Visibility: 4 miles ( 7 km)
Ceiling: 700 feet AGL
Clouds: scattered clouds at 500 feet AGL
overcast cloud deck at 700 feet AGL
Weather: -SN  (light snow)

METAR text: EPKT 301400Z 22020KT 2700 +SN BR SCT002 BKN013 OVC016 00/M01 Q0995
Conditions at: EPKT (KATOWICE/PYRZOWI, PL) observed 1400 UTC 30 November 2021
Temperature: 0.0°C (32°F)
Dewpoint: -1.0°C (30°F) [RH = 93%]
Pressure (altimeter): 29.38 inches Hg (995.0 mb)
Winds: from the SW (220 degrees) at 23 MPH (20 knots; 10.3 m/s)
Visibility: 1.68 miles (2.70 km)
Ceiling: 1300 feet AGL
Clouds: scattered clouds at 200 feet AGL
broken clouds at 1300 feet AGL
overcast cloud deck at 1600 feet AGL
Weather: +SN BR  (heavy snow, mist)

METAR text: EPKT 301330Z 22020KT 4000 SN BR FEW007 SCT016 BKN018 01/M01 Q0996
Conditions at: EPKT (KATOWICE/PYRZOWI, PL) observed 1330 UTC 30 November 2021
Temperature: 1.0°C (34°F)
Dewpoint: -1.0°C (30°F) [RH = 86%]
Pressure (altimeter): 29.41 inches Hg (996.0 mb)
Winds: from the SW (220 degrees) at 23 MPH (20 knots; 10.3 m/s)
Visibility: 2.49 miles (4.01 km)
Ceiling: 1800 feet AGL
Clouds: few clouds at 700 feet AGL
scattered clouds at 1600 feet AGL
broken clouds at 1800 feet AGL
Weather: SN BR  (moderate snow, mist)

METAR text: EPKT 301300Z 22019G29KT 9999 -SN BKN012 OVC014 01/M02 Q0997
Conditions at: EPKT (KATOWICE/PYRZOWI, PL) observed 1300 UTC 30 November 2021
Temperature: 1.0°C (34°F)
Dewpoint: -2.0°C (28°F) [RH = 80%]
Pressure (altimeter): 29.44 inches Hg (997.0 mb)
Winds: from the SW (220 degrees) at 22 MPH (19 knots; 9.8 m/s)
gusting to 33 MPH (29 knots; 14.9 m/s)
Visibility: 6 or more miles (10+ km)
Ceiling: 1200 feet AGL
Clouds: broken clouds at 1200 feet AGL
overcast cloud deck at 1400 feet AGL
Weather: -SN  (light snow)

METAR text: EPKT 301230Z 22017KT 9999 -SN FEW014 BKN016 BKN020 01/M02 Q0997
Conditions at: EPKT (KATOWICE/PYRZOWI, PL) observed 1230 UTC 30 November 2021
Temperature: 1.0°C (34°F)
Dewpoint: -2.0°C (28°F) [RH = 80%]
Pressure (altimeter): 29.44 inches Hg (997.0 mb)
Winds: from the SW (220 degrees) at 20 MPH (17 knots; 8.7 m/s)
Visibility: 6 or more miles (10+ km)
Ceiling: 1600 feet AGL
Clouds: few clouds at 1400 feet AGL
broken clouds at 1600 feet AGL
broken clouds at 2000 feet AGL
Weather: -SN  (light snow)

METAR text: EPKT 301200Z 21019KT 9999 -SN SCT010 SCT016 BKN037 00/M01 Q0998 RESN
Conditions at: EPKT (KATOWICE/PYRZOWI, PL) observed 1200 UTC 30 November 2021
Temperature: 0.0°C (32°F)
Dewpoint: -1.0°C (30°F) [RH = 93%]
Pressure (altimeter): 29.47 inches Hg (998.0 mb)
Winds: from the SSW (210 degrees) at 22 MPH (19 knots; 9.8 m/s)
Visibility: 6 or more miles (10+ km)
Ceiling: 3700 feet AGL
Clouds: scattered clouds at 1000 feet AGL
scattered clouds at 1600 feet AGL
broken clouds at 3700 feet AGL
Weather: -SN  (light snow)

METAR text: EPKT 301130Z 22020KT 6000 -SN FEW015 SCT018 BKN027 01/M02 Q0999
Conditions at: EPKT (KATOWICE/PYRZOWI, PL) observed 1130 UTC 30 November 2021
Temperature: 1.0°C (34°F)
Dewpoint: -2.0°C (28°F) [RH = 80%]
Pressure (altimeter): 29.50 inches Hg (999.0 mb)
Winds: from the SW (220 degrees) at 23 MPH (20 knots; 10.3 m/s)
Visibility: 4 miles ( 6 km)
Ceiling: 2700 feet AGL
Clouds: few clouds at 1500 feet AGL
scattered clouds at 1800 feet AGL
broken clouds at 2700 feet AGL
Weather: -SN  (light snow)

METAR text: EPKT 301100Z 22018KT 9999 FEW019 01/M02 Q1000
Conditions at: EPKT (KATOWICE/PYRZOWI, PL) observed 1100 UTC 30 November 2021
Temperature: 1.0°C (34°F)
Dewpoint: -2.0°C (28°F) [RH = 80%]
Pressure (altimeter): 29.53 inches Hg (1000.0 mb)
Winds: from the SW (220 degrees) at 21 MPH (18 knots; 9.3 m/s)
Visibility: 6 or more miles (10+ km)
Ceiling: at least 12,000 feet AGL
Clouds: few clouds at 1900 feet AGL
Weather: no significant weather observed at this time

METAR text: EPKT 301030Z 22014KT 9999 FEW016 01/M02 Q1001
Conditions at: EPKT (KATOWICE/PYRZOWI, PL) observed 1030 UTC 30 November 2021
Temperature: 1.0°C (34°F)
Dewpoint: -2.0°C (28°F) [RH = 80%]
Pressure (altimeter): 29.56 inches Hg (1001.0 mb)
Winds: from the SW (220 degrees) at 16 MPH (14 knots; 7.2 m/s)
Visibility: 6 or more miles (10+ km)
Ceiling: at least 12,000 feet AGL
Clouds: few clouds at 1600 feet AGL
Weather: no significant weather observed at this time

METAR text: EPKT 301000Z 21014KT 9999 FEW013 01/M01 Q1001
Conditions at: EPKT (KATOWICE/PYRZOWI, PL) observed 1000 UTC 30 November 2021
Temperature: 1.0°C (34°F)
Dewpoint: -1.0°C (30°F) [RH = 86%]
Pressure (altimeter): 29.56 inches Hg (1001.0 mb)
Winds: from the SSW (210 degrees) at 16 MPH (14 knots; 7.2 m/s)
Visibility: 6 or more miles (10+ km)
Ceiling: at least 12,000 feet AGL
Clouds: few clouds at 1300 feet AGL
Weather: no significant weather observed at this time

Forecast for: EPKT (KATOWICE/PYRZOWI, PL)
Text: TAF EPKT 011730Z 0118/0218 20015KT 9999 BKN035
Forecast period: 1800 UTC 01 December 2021 to 0900 UTC 02 December 2021
Forecast type: FROM: standard forecast or significant change
Winds: from the SSW (200 degrees) at 17 MPH (15 knots; 7.7 m/s)
Visibility: 6 or more miles (10+ km)
Ceiling: 3500 feet AGL
Clouds: broken clouds at 3500 feet AGL
Weather: no significant weather forecast for this period
Text: TEMPO 0118/0206 20020G32KT
Forecast period: 1800 UTC 01 December 2021 to 0600 UTC 02 December 2021
Forecast type: TEMPORARY: The following changes expected for less than half the time period
Winds: from the SSW (200 degrees) at 23 MPH (20 knots; 10.3 m/s)
gusting to 37 MPH (32 knots; 16.5 m/s)
Visibility: missing
Ceiling: unknown
Clouds: missing
Weather: no significant weather forecast for this period
Text: TEMPO 0206/0212 20015G25KT
Forecast period: 0600 to 1200 UTC 02 December 2021
Forecast type: TEMPORARY: The following changes expected for less than half the time period
Winds: from the SSW (200 degrees) at 17 MPH (15 knots; 7.7 m/s)
gusting to 29 MPH (25 knots; 12.9 m/s)
Visibility: missing
Ceiling: unknown
Clouds: missing
Weather: no significant weather forecast for this period
Text: BECMG 0209/0212 27010KT
Forecast period: 0900 to 1800 UTC 02 December 2021
Forecast type: BECOMING: Conditions expected to become as follows by 1200 UTC 02 December 2021
Winds: from the W (270 degrees) at 12 MPH (10 knots; 5.1 m/s)
Visibility: 6 or more miles (10+ km)
Ceiling: 3500 feet AGL
Clouds: broken clouds at 3500 feet AGL
Weather: no significant weather forecast for this period